sensor_id;sensor_type;location;lat;lon;timestamp;P1;durP1;ratioP1;P2;durP2;ratioP2
15096;SDS011;7649;52.084;7.478;2022-09-12T00:00:56;12.47;;;11.40;;
15096;SDS011;7649;52.084;7.478;2022-09-12T00:03:29;12.17;;;11.20;;
15096;SDS011;7649;52.084;7.478;2022-09-12T00:05:57;11.90;;;10.90;;
15096;SDS011;7649;52.084;7.478;2022-09-12T00:08:25;12.33;;;11.13;;
15096;SDS011;7649;52.084;7.478;2022-09-12T00:10:53;12.13;;;11.03;;
15096;SDS011;7649;52.084;7.478;2022-09-12T00:13:22;12.97;;;11.77;;
15096;SDS011;7649;52.084;7.478;2022-09-12T00:15:50;12.60;;;11.50;;
15096;SDS011;7649;52.084;7.478;2022-09-12T00:18:19;13.30;;;11.23;;
15096;SDS011;7649;52.084;7.478;2022-09-12T00:20:48;13.30;;;12.20;;
15096;SDS011;7649;52.084;7.478;2022-09-12T00:23:16;12.63;;;11.63;;
15096;SDS011;7649;52.084;7.478;2022-09-12T00:25:45;12.40;;;11.30;;
15096;SDS011;7649;52.084;7.478;2022-09-12T00:28:15;13.57;;;12.33;;
15096;SDS011;7649;52.084;7.478;2022-09-12T00:30:45;13.07;;;11.87;;
15096;SDS011;7649;52.084;7.478;2022-09-12T00:33:13;13.20;;;12.00;;
15096;SDS011;7649;52.084;7.478;2022-09-12T00:35:44;13.87;;;12.57;;
15096;SDS011;7649;52.084;7.478;2022-09-12T00:38:13;13.90;;;12.70;;
15096;SDS011;7649;52.084;7.478;2022-09-12T00:40:42;14.07;;;12.83;;
15096;SDS011;7649;52.084;7.478;2022-09-12T00:43:11;13.77;;;12.47;;
15096;SDS011;7649;52.084;7.478;2022-09-12T00:45:40;12.90;;;11.73;;
15096;SDS011;7649;52.084;7.478;2022-09-12T00:48:14;13.43;;;12.23;;
15096;SDS011;7649;52.084;7.478;2022-09-12T00:50:47;13.10;;;12.00;;
15096;SDS011;7649;52.084;7.478;2022-09-12T00:53:16;12.57;;;11.50;;
15096;SDS011;7649;52.084;7.478;2022-09-12T00:55:46;13.67;;;12.27;;
15096;SDS011;7649;52.084;7.478;2022-09-12T00:58:17;13.30;;;12.07;;
15096;SDS011;7649;52.084;7.478;2022-09-12T01:00:47;12.50;;;11.30;;
15096;SDS011;7649;52.084;7.478;2022-09-12T01:03:16;13.30;;;12.17;;
15096;SDS011;7649;52.084;7.478;2022-09-12T01:05:46;13.63;;;12.27;;
15096;SDS011;7649;52.084;7.478;2022-09-12T01:08:19;14.13;;;12.87;;
15096;SDS011;7649;52.084;7.478;2022-09-12T01:10:47;14.10;;;12.80;;
15096;SDS011;7649;52.084;7.478;2022-09-12T01:13:15;13.70;;;12.30;;
15096;SDS011;7649;52.084;7.478;2022-09-12T01:15:43;14.30;;;13.03;;
15096;SDS011;7649;52.084;7.478;2022-09-12T01:18:14;12.80;;;11.77;;
15096;SDS011;7649;52.084;7.478;2022-09-12T01:20:46;13.20;;;11.90;;
15096;SDS011;7649;52.084;7.478;2022-09-12T01:23:43;13.33;;;12.13;;
15096;SDS011;7649;52.084;7.478;2022-09-12T01:26:22;13.00;;;11.80;;
15096;SDS011;7649;52.084;7.478;2022-09-12T01:28:57;14.73;;;13.43;;
15096;SDS011;7649;52.084;7.478;2022-09-12T01:31:32;13.63;;;12.40;;
15096;SDS011;7649;52.084;7.478;2022-09-12T01:34:06;13.87;;;12.67;;
15096;SDS011;7649;52.084;7.478;2022-09-12T01:36:38;13.70;;;12.50;;
15096;SDS011;7649;52.084;7.478;2022-09-12T01:39:11;14.23;;;12.67;;
15096;SDS011;7649;52.084;7.478;2022-09-12T01:41:42;14.13;;;12.83;;
15096;SDS011;7649;52.084;7.478;2022-09-12T01:44:13;14.23;;;12.93;;
15096;SDS011;7649;52.084;7.478;2022-09-12T01:46:45;13.83;;;12.60;;
15096;SDS011;7649;52.084;7.478;2022-09-12T01:49:16;14.90;;;13.50;;
15096;SDS011;7649;52.084;7.478;2022-09-12T01:51:47;14.40;;;13.10;;
15096;SDS011;7649;52.084;7.478;2022-09-12T01:54:20;15.27;;;13.80;;
15096;SDS011;7649;52.084;7.478;2022-09-12T01:56:50;14.37;;;12.97;;
15096;SDS011;7649;52.084;7.478;2022-09-12T01:59:20;15.10;;;13.80;;
15096;SDS011;7649;52.084;7.478;2022-09-12T02:01:54;15.53;;;14.13;;
15096;SDS011;7649;52.084;7.478;2022-09-12T02:04:26;14.73;;;13.43;;
15096;SDS011;7649;52.084;7.478;2022-09-12T02:07:00;16.43;;;14.73;;
15096;SDS011;7649;52.084;7.478;2022-09-12T02:09:32;16.27;;;14.80;;
15096;SDS011;7649;52.084;7.478;2022-09-12T02:12:02;15.57;;;13.97;;
15096;SDS011;7649;52.084;7.478;2022-09-12T02:14:31;16.00;;;14.47;;
15096;SDS011;7649;52.084;7.478;2022-09-12T02:17:03;16.00;;;14.50;;
15096;SDS011;7649;52.084;7.478;2022-09-12T02:19:38;15.33;;;13.90;;
15096;SDS011;7649;52.084;7.478;2022-09-12T02:22:08;14.27;;;12.97;;
15096;SDS011;7649;52.084;7.478;2022-09-12T02:24:39;13.60;;;12.40;;
15096;SDS011;7649;52.084;7.478;2022-09-12T02:27:10;13.83;;;12.63;;
15096;SDS011;7649;52.084;7.478;2022-09-12T02:29:41;14.40;;;13.03;;
15096;SDS011;7649;52.084;7.478;2022-09-12T02:32:11;15.43;;;14.07;;
15096;SDS011;7649;52.084;7.478;2022-09-12T02:34:44;15.53;;;13.60;;
15096;SDS011;7649;52.084;7.478;2022-09-12T02:37:17;17.00;;;14.63;;
15096;SDS011;7649;52.084;7.478;2022-09-12T02:39:51;16.73;;;14.90;;
15096;SDS011;7649;52.084;7.478;2022-09-12T02:42:20;15.87;;;14.27;;
15096;SDS011;7649;52.084;7.478;2022-09-12T02:44:49;16.30;;;14.63;;
15096;SDS011;7649;52.084;7.478;2022-09-12T02:47:22;18.07;;;16.17;;
15096;SDS011;7649;52.084;7.478;2022-09-12T02:49:51;15.57;;;13.93;;
15096;SDS011;7649;52.084;7.478;2022-09-12T02:52:19;16.23;;;14.63;;
15096;SDS011;7649;52.084;7.478;2022-09-12T02:54:48;17.00;;;15.30;;
15096;SDS011;7649;52.084;7.478;2022-09-12T02:57:17;15.90;;;14.20;;
15096;SDS011;7649;52.084;7.478;2022-09-12T02:59:48;16.93;;;15.20;;
15096;SDS011;7649;52.084;7.478;2022-09-12T03:02:25;16.03;;;14.53;;
15096;SDS011;7649;52.084;7.478;2022-09-12T03:05:07;15.63;;;14.03;;
15096;SDS011;7649;52.084;7.478;2022-09-12T03:07:43;15.10;;;13.60;;
15096;SDS011;7649;52.084;7.478;2022-09-12T03:10:14;16.00;;;14.43;;
15096;SDS011;7649;52.084;7.478;2022-09-12T03:12:46;16.87;;;15.17;;
15096;SDS011;7649;52.084;7.478;2022-09-12T03:15:27;17.63;;;15.87;;
15096;SDS011;7649;52.084;7.478;2022-09-12T03:18:05;17.10;;;15.40;;
15096;SDS011;7649;52.084;7.478;2022-09-12T03:20:41;18.07;;;16.23;;
15096;SDS011;7649;52.084;7.478;2022-09-12T03:23:15;18.73;;;16.90;;
15096;SDS011;7649;52.084;7.478;2022-09-12T03:25:47;18.40;;;16.60;;
15096;SDS011;7649;52.084;7.478;2022-09-12T03:28:16;19.07;;;16.80;;
15096;SDS011;7649;52.084;7.478;2022-09-12T03:30:46;17.70;;;15.93;;
15096;SDS011;7649;52.084;7.478;2022-09-12T03:33:18;18.87;;;16.87;;
15096;SDS011;7649;52.084;7.478;2022-09-12T03:35:47;18.53;;;16.67;;
15096;SDS011;7649;52.084;7.478;2022-09-12T03:38:16;18.93;;;16.87;;
15096;SDS011;7649;52.084;7.478;2022-09-12T03:40:44;18.40;;;16.53;;
15096;SDS011;7649;52.084;7.478;2022-09-12T03:43:19;16.43;;;14.83;;
15096;SDS011;7649;52.084;7.478;2022-09-12T03:45:48;19.30;;;16.17;;
15096;SDS011;7649;52.084;7.478;2022-09-12T03:48:18;17.83;;;16.03;;
15096;SDS011;7649;52.084;7.478;2022-09-12T03:50:46;17.93;;;16.03;;
15096;SDS011;7649;52.084;7.478;2022-09-12T03:53:15;16.90;;;15.10;;
15096;SDS011;7649;52.084;7.478;2022-09-12T03:55:43;18.20;;;16.30;;
15096;SDS011;7649;52.084;7.478;2022-09-12T03:58:11;18.80;;;16.43;;
15096;SDS011;7649;52.084;7.478;2022-09-12T04:00:39;18.13;;;15.17;;
15096;SDS011;7649;52.084;7.478;2022-09-12T04:03:09;17.40;;;14.80;;
15096;SDS011;7649;52.084;7.478;2022-09-12T04:05:39;15.87;;;14.17;;
15096;SDS011;7649;52.084;7.478;2022-09-12T04:08:07;16.53;;;14.93;;
15096;SDS011;7649;52.084;7.478;2022-09-12T04:10:35;16.27;;;14.70;;
15096;SDS011;7649;52.084;7.478;2022-09-12T04:13:03;16.33;;;14.63;;
15096;SDS011;7649;52.084;7.478;2022-09-12T04:15:31;17.97;;;14.07;;
15096;SDS011;7649;52.084;7.478;2022-09-12T04:18:00;16.90;;;15.03;;
15096;SDS011;7649;52.084;7.478;2022-09-12T04:20:31;16.50;;;14.50;;
15096;SDS011;7649;52.084;7.478;2022-09-12T04:23:01;15.87;;;14.37;;
15096;SDS011;7649;52.084;7.478;2022-09-12T04:25:29;16.40;;;14.70;;
15096;SDS011;7649;52.084;7.478;2022-09-12T04:27:57;16.80;;;15.00;;
15096;SDS011;7649;52.084;7.478;2022-09-12T04:30:25;19.20;;;15.50;;
15096;SDS011;7649;52.084;7.478;2022-09-12T04:32:54;17.83;;;15.93;;
15096;SDS011;7649;52.084;7.478;2022-09-12T04:35:22;18.13;;;16.20;;
15096;SDS011;7649;52.084;7.478;2022-09-12T04:37:50;22.87;;;16.67;;
15096;SDS011;7649;52.084;7.478;2022-09-12T04:40:20;19.40;;;17.30;;
15096;SDS011;7649;52.084;7.478;2022-09-12T04:42:48;18.37;;;16.23;;
15096;SDS011;7649;52.084;7.478;2022-09-12T04:45:16;18.47;;;16.20;;
15096;SDS011;7649;52.084;7.478;2022-09-12T04:47:44;22.33;;;16.40;;
15096;SDS011;7649;52.084;7.478;2022-09-12T04:50:13;18.37;;;16.47;;
15096;SDS011;7649;52.084;7.478;2022-09-12T04:52:41;22.97;;;18.13;;
15096;SDS011;7649;52.084;7.478;2022-09-12T04:55:09;26.37;;;18.63;;
15096;SDS011;7649;52.084;7.478;2022-09-12T04:57:39;25.83;;;15.90;;
15096;SDS011;7649;52.084;7.478;2022-09-12T05:00:08;23.80;;;17.77;;
15096;SDS011;7649;52.084;7.478;2022-09-12T05:02:39;41.60;;;17.10;;
15096;SDS011;7649;52.084;7.478;2022-09-12T05:05:08;26.93;;;17.63;;
15096;SDS011;7649;52.084;7.478;2022-09-12T05:07:36;36.53;;;17.30;;
15096;SDS011;7649;52.084;7.478;2022-09-12T05:10:05;25.07;;;17.83;;
15096;SDS011;7649;52.084;7.478;2022-09-12T05:12:34;46.53;;;16.67;;
15096;SDS011;7649;52.084;7.478;2022-09-12T05:15:04;25.40;;;16.30;;
15096;SDS011;7649;52.084;7.478;2022-09-12T05:17:32;23.53;;;16.00;;
15096;SDS011;7649;52.084;7.478;2022-09-12T05:20:01;39.57;;;14.93;;
15096;SDS011;7649;52.084;7.478;2022-09-12T05:22:29;43.70;;;15.90;;
15096;SDS011;7649;52.084;7.478;2022-09-12T05:24:57;41.87;;;16.20;;
15096;SDS011;7649;52.084;7.478;2022-09-12T05:27:26;23.60;;;15.13;;
15096;SDS011;7649;52.084;7.478;2022-09-12T05:29:54;26.93;;;15.20;;
15096;SDS011;7649;52.084;7.478;2022-09-12T05:32:23;25.23;;;15.70;;
15096;SDS011;7649;52.084;7.478;2022-09-12T05:34:52;22.50;;;15.60;;
15096;SDS011;7649;52.084;7.478;2022-09-12T05:37:20;31.67;;;14.97;;
15096;SDS011;7649;52.084;7.478;2022-09-12T05:39:48;23.27;;;14.20;;
15096;SDS011;7649;52.084;7.478;2022-09-12T05:42:17;21.57;;;16.83;;
15096;SDS011;7649;52.084;7.478;2022-09-12T05:44:45;17.60;;;15.37;;
15096;SDS011;7649;52.084;7.478;2022-09-12T05:47:13;23.13;;;18.67;;
15096;SDS011;7649;52.084;7.478;2022-09-12T05:49:43;24.67;;;15.37;;
15096;SDS011;7649;52.084;7.478;2022-09-12T05:52:13;22.67;;;15.70;;
15096;SDS011;7649;52.084;7.478;2022-09-12T05:54:41;20.80;;;15.47;;
15096;SDS011;7649;52.084;7.478;2022-09-12T05:57:09;17.50;;;16.00;;
15096;SDS011;7649;52.084;7.478;2022-09-12T05:59:37;19.33;;;15.80;;
15096;SDS011;7649;52.084;7.478;2022-09-12T06:02:07;17.67;;;15.80;;
15096;SDS011;7649;52.084;7.478;2022-09-12T06:04:36;17.87;;;16.03;;
15096;SDS011;7649;52.084;7.478;2022-09-12T06:07:05;18.50;;;16.50;;
15096;SDS011;7649;52.084;7.478;2022-09-12T06:09:33;18.57;;;16.87;;
15096;SDS011;7649;52.084;7.478;2022-09-12T06:12:02;20.23;;;17.63;;
15096;SDS011;7649;52.084;7.478;2022-09-12T06:14:30;19.07;;;17.20;;
15096;SDS011;7649;52.084;7.478;2022-09-12T06:16:59;19.40;;;16.90;;
15096;SDS011;7649;52.084;7.478;2022-09-12T06:19:27;19.67;;;17.67;;
15096;SDS011;7649;52.084;7.478;2022-09-12T06:21:55;18.77;;;16.73;;
15096;SDS011;7649;52.084;7.478;2022-09-12T06:24:25;18.83;;;16.93;;
15096;SDS011;7649;52.084;7.478;2022-09-12T06:26:53;19.53;;;17.70;;
15096;SDS011;7649;52.084;7.478;2022-09-12T06:29:22;19.53;;;17.73;;
15096;SDS011;7649;52.084;7.478;2022-09-12T06:31:51;18.50;;;16.80;;
15096;SDS011;7649;52.084;7.478;2022-09-12T06:34:19;19.60;;;17.80;;
15096;SDS011;7649;52.084;7.478;2022-09-12T06:36:47;19.60;;;17.63;;
15096;SDS011;7649;52.084;7.478;2022-09-12T06:39:16;20.77;;;18.77;;
15096;SDS011;7649;52.084;7.478;2022-09-12T06:41:46;19.23;;;16.70;;
15096;SDS011;7649;52.084;7.478;2022-09-12T06:44:16;19.53;;;17.73;;
15096;SDS011;7649;52.084;7.478;2022-09-12T06:46:44;19.87;;;17.87;;
15096;SDS011;7649;52.084;7.478;2022-09-12T06:49:12;19.67;;;17.87;;
15096;SDS011;7649;52.084;7.478;2022-09-12T06:51:42;19.13;;;17.33;;
15096;SDS011;7649;52.084;7.478;2022-09-12T06:54:11;18.47;;;16.80;;
15096;SDS011;7649;52.084;7.478;2022-09-12T06:56:39;20.50;;;18.47;;
15096;SDS011;7649;52.084;7.478;2022-09-12T06:59:09;19.77;;;17.90;;
15096;SDS011;7649;52.084;7.478;2022-09-12T07:01:37;20.00;;;17.77;;
15096;SDS011;7649;52.084;7.478;2022-09-12T07:04:06;19.43;;;17.47;;
15096;SDS011;7649;52.084;7.478;2022-09-12T07:06:35;18.67;;;16.97;;
15096;SDS011;7649;52.084;7.478;2022-09-12T07:09:04;18.53;;;16.83;;
15096;SDS011;7649;52.084;7.478;2022-09-12T07:11:33;19.37;;;17.57;;
15096;SDS011;7649;52.084;7.478;2022-09-12T07:14:02;18.57;;;16.73;;
15096;SDS011;7649;52.084;7.478;2022-09-12T07:16:33;18.87;;;17.07;;
15096;SDS011;7649;52.084;7.478;2022-09-12T07:19:02;17.83;;;16.13;;
15096;SDS011;7649;52.084;7.478;2022-09-12T07:21:30;18.27;;;16.37;;
15096;SDS011;7649;52.084;7.478;2022-09-12T07:24:01;17.50;;;15.83;;
15096;SDS011;7649;52.084;7.478;2022-09-12T07:26:30;19.27;;;16.97;;
15096;SDS011;7649;52.084;7.478;2022-09-12T07:28:58;20.77;;;17.00;;
15096;SDS011;7649;52.084;7.478;2022-09-12T07:31:48;18.00;;;16.30;;
15096;SDS011;7649;52.084;7.478;2022-09-12T07:34:16;16.03;;;14.63;;
15096;SDS011;7649;52.084;7.478;2022-09-12T07:36:44;17.67;;;15.97;;
15096;SDS011;7649;52.084;7.478;2022-09-12T07:39:12;18.40;;;16.63;;
15096;SDS011;7649;52.084;7.478;2022-09-12T07:41:41;16.73;;;15.17;;
15096;SDS011;7649;52.084;7.478;2022-09-12T07:44:09;17.03;;;15.47;;
15096;SDS011;7649;52.084;7.478;2022-09-12T07:46:37;16.87;;;15.37;;
15096;SDS011;7649;52.084;7.478;2022-09-12T07:49:07;17.90;;;16.10;;
15096;SDS011;7649;52.084;7.478;2022-09-12T07:51:35;17.93;;;15.83;;
15096;SDS011;7649;52.084;7.478;2022-09-12T07:54:06;17.53;;;15.83;;
15096;SDS011;7649;52.084;7.478;2022-09-12T07:56:34;16.83;;;15.20;;
15096;SDS011;7649;52.084;7.478;2022-09-12T07:59:04;17.47;;;15.87;;
15096;SDS011;7649;52.084;7.478;2022-09-12T08:01:33;18.57;;;16.03;;
15096;SDS011;7649;52.084;7.478;2022-09-12T08:04:01;16.27;;;14.73;;
15096;SDS011;7649;52.084;7.478;2022-09-12T08:06:32;17.23;;;15.63;;
15096;SDS011;7649;52.084;7.478;2022-09-12T08:09:02;17.40;;;15.87;;
15096;SDS011;7649;52.084;7.478;2022-09-12T08:11:30;18.10;;;14.83;;
15096;SDS011;7649;52.084;7.478;2022-09-12T08:13:58;17.03;;;15.37;;
15096;SDS011;7649;52.084;7.478;2022-09-12T08:16:28;16.03;;;14.63;;
15096;SDS011;7649;52.084;7.478;2022-09-12T08:18:58;17.63;;;16.03;;
15096;SDS011;7649;52.084;7.478;2022-09-12T08:21:27;17.37;;;15.67;;
15096;SDS011;7649;52.084;7.478;2022-09-12T08:23:58;17.67;;;15.87;;
15096;SDS011;7649;52.084;7.478;2022-09-12T08:26:27;16.90;;;15.20;;
15096;SDS011;7649;52.084;7.478;2022-09-12T08:28:55;16.17;;;14.67;;
15096;SDS011;7649;52.084;7.478;2022-09-12T08:31:24;16.97;;;13.77;;
15096;SDS011;7649;52.084;7.478;2022-09-12T08:33:53;16.70;;;15.03;;
15096;SDS011;7649;52.084;7.478;2022-09-12T08:36:23;15.93;;;14.23;;
15096;SDS011;7649;52.084;7.478;2022-09-12T08:38:53;16.00;;;14.50;;
15096;SDS011;7649;52.084;7.478;2022-09-12T08:41:28;16.27;;;14.63;;
15096;SDS011;7649;52.084;7.478;2022-09-12T08:46:48;14.73;;;13.10;;
15096;SDS011;7649;52.084;7.478;2022-09-12T08:49:24;14.57;;;13.23;;
15096;SDS011;7649;52.084;7.478;2022-09-12T08:51:54;14.83;;;13.33;;
15096;SDS011;7649;52.084;7.478;2022-09-12T08:54:24;14.93;;;13.53;;
15096;SDS011;7649;52.084;7.478;2022-09-12T08:56:56;14.20;;;12.70;;
15096;SDS011;7649;52.084;7.478;2022-09-12T08:59:26;14.23;;;12.90;;
15096;SDS011;7649;52.084;7.478;2022-09-12T09:01:55;14.20;;;12.63;;
15096;SDS011;7649;52.084;7.478;2022-09-12T09:04:29;14.47;;;12.87;;
15096;SDS011;7649;52.084;7.478;2022-09-12T09:09:47;13.87;;;12.47;;
15096;SDS011;7649;52.084;7.478;2022-09-12T09:12:24;13.93;;;12.13;;
15096;SDS011;7649;52.084;7.478;2022-09-12T09:15:00;13.48;;;12.10;;
15096;SDS011;7649;52.084;7.478;2022-09-12T09:17:31;11.50;;;10.27;;
15096;SDS011;7649;52.084;7.478;2022-09-12T09:20:02;12.85;;;10.75;;
15096;SDS011;7649;52.084;7.478;2022-09-12T09:22:37;13.98;;;10.77;;
15096;SDS011;7649;52.084;7.478;2022-09-12T09:25:10;12.40;;;11.07;;
15096;SDS011;7649;52.084;7.478;2022-09-12T09:27:45;11.80;;;10.60;;
15096;SDS011;7649;52.084;7.478;2022-09-12T09:30:16;12.43;;;10.45;;
15096;SDS011;7649;52.084;7.478;2022-09-12T09:32:46;13.25;;;11.23;;
15096;SDS011;7649;52.084;7.478;2022-09-12T09:35:17;12.50;;;10.73;;
15096;SDS011;7649;52.084;7.478;2022-09-12T09:37:51;10.90;;;9.90;;
15096;SDS011;7649;52.084;7.478;2022-09-12T09:40:25;12.88;;;11.05;;
15096;SDS011;7649;52.084;7.478;2022-09-12T09:42:57;11.70;;;10.50;;
15096;SDS011;7649;52.084;7.478;2022-09-12T09:45:28;12.00;;;10.65;;
15096;SDS011;7649;52.084;7.478;2022-09-12T09:47:56;11.43;;;10.43;;
15096;SDS011;7649;52.084;7.478;2022-09-12T09:50:25;11.77;;;10.57;;
15096;SDS011;7649;52.084;7.478;2022-09-12T09:52:53;11.45;;;10.35;;
15096;SDS011;7649;52.084;7.478;2022-09-12T09:55:24;12.23;;;11.02;;
15096;SDS011;7649;52.084;7.478;2022-09-12T09:57:54;12.05;;;10.95;;
15096;SDS011;7649;52.084;7.478;2022-09-12T10:00:28;12.10;;;10.48;;
15096;SDS011;7649;52.084;7.478;2022-09-12T10:03:00;12.07;;;10.88;;
15096;SDS011;7649;52.084;7.478;2022-09-12T10:05:30;12.70;;;11.02;;
15096;SDS011;7649;52.084;7.478;2022-09-12T10:07:59;12.30;;;11.00;;
15096;SDS011;7649;52.084;7.478;2022-09-12T10:10:28;12.23;;;11.02;;
15096;SDS011;7649;52.084;7.478;2022-09-12T10:13:05;12.85;;;11.30;;
15096;SDS011;7649;52.084;7.478;2022-09-12T10:15:35;12.68;;;10.60;;
15096;SDS011;7649;52.084;7.478;2022-09-12T10:18:04;12.52;;;11.18;;
15096;SDS011;7649;52.084;7.478;2022-09-12T10:20:33;11.50;;;10.40;;
15096;SDS011;7649;52.084;7.478;2022-09-12T10:23:03;13.65;;;10.13;;
15096;SDS011;7649;52.084;7.478;2022-09-12T10:25:46;12.60;;;11.10;;
15096;SDS011;7649;52.084;7.478;2022-09-12T10:28:19;11.57;;;10.48;;
15096;SDS011;7649;52.084;7.478;2022-09-12T10:30:52;10.98;;;9.98;;
15096;SDS011;7649;52.084;7.478;2022-09-12T10:33:21;11.55;;;10.35;;
15096;SDS011;7649;52.084;7.478;2022-09-12T10:35:51;11.70;;;10.50;;
15096;SDS011;7649;52.084;7.478;2022-09-12T10:38:20;12.55;;;10.32;;
15096;SDS011;7649;52.084;7.478;2022-09-12T10:40:54;12.10;;;10.98;;
15096;SDS011;7649;52.084;7.478;2022-09-12T10:43:25;11.18;;;10.05;;
15096;SDS011;7649;52.084;7.478;2022-09-12T10:45:57;11.55;;;10.23;;
15096;SDS011;7649;52.084;7.478;2022-09-12T10:48:27;13.05;;;10.00;;
15096;SDS011;7649;52.084;7.478;2022-09-12T10:50:57;11.18;;;10.13;;
15096;SDS011;7649;52.084;7.478;2022-09-12T10:53:26;12.40;;;10.00;;
15096;SDS011;7649;52.084;7.478;2022-09-12T10:56:04;10.52;;;9.48;;
15096;SDS011;7649;52.084;7.478;2022-09-12T10:58:43;11.45;;;10.32;;
15096;SDS011;7649;52.084;7.478;2022-09-12T11:01:17;12.23;;;10.70;;
15096;SDS011;7649;52.084;7.478;2022-09-12T11:03:54;9.65;;;8.55;;
15096;SDS011;7649;52.084;7.478;2022-09-12T11:06:28;9.77;;;8.82;;
15096;SDS011;7649;52.084;7.478;2022-09-12T11:09:02;9.30;;;8.35;;
15096;SDS011;7649;52.084;7.478;2022-09-12T11:11:36;9.68;;;8.70;;
15096;SDS011;7649;52.084;7.478;2022-09-12T11:14:09;10.45;;;8.80;;
15096;SDS011;7649;52.084;7.478;2022-09-12T11:16:42;9.30;;;8.27;;
15096;SDS011;7649;52.084;7.478;2022-09-12T11:22:07;9.27;;;8.30;;
15096;SDS011;7649;52.084;7.478;2022-09-12T11:24:46;8.68;;;7.93;;
15096;SDS011;7649;52.084;7.478;2022-09-12T11:27:26;8.65;;;7.93;;
15096;SDS011;7649;52.084;7.478;2022-09-12T11:29:58;8.48;;;7.68;;
15096;SDS011;7649;52.084;7.478;2022-09-12T11:32:36;8.35;;;7.65;;
15096;SDS011;7649;52.084;7.478;2022-09-12T11:35:09;8.60;;;7.80;;
15096;SDS011;7649;52.084;7.478;2022-09-12T11:37:46;7.90;;;7.15;;
15096;SDS011;7649;52.084;7.478;2022-09-12T11:40:19;7.80;;;7.10;;
15096;SDS011;7649;52.084;7.478;2022-09-12T11:42:54;8.23;;;7.45;;
15096;SDS011;7649;52.084;7.478;2022-09-12T11:45:24;7.40;;;6.80;;
15096;SDS011;7649;52.084;7.478;2022-09-12T11:47:56;8.50;;;7.07;;
15096;SDS011;7649;52.084;7.478;2022-09-12T11:50:26;5.47;;;4.97;;
15096;SDS011;7649;52.084;7.478;2022-09-12T11:52:56;5.38;;;4.88;;
15096;SDS011;7649;52.084;7.478;2022-09-12T11:55:27;6.70;;;5.43;;
15096;SDS011;7649;52.084;7.478;2022-09-12T11:57:57;6.65;;;6.13;;
15096;SDS011;7649;52.084;7.478;2022-09-12T12:00:26;5.85;;;5.35;;
15096;SDS011;7649;52.084;7.478;2022-09-12T12:03:00;5.40;;;4.50;;
15096;SDS011;7649;52.084;7.478;2022-09-12T12:05:33;6.88;;;5.15;;
15096;SDS011;7649;52.084;7.478;2022-09-12T12:08:03;7.03;;;4.82;;
15096;SDS011;7649;52.084;7.478;2022-09-12T12:10:33;8.25;;;5.40;;
15096;SDS011;7649;52.084;7.478;2022-09-12T12:13:03;6.97;;;6.20;;
15096;SDS011;7649;52.084;7.478;2022-09-12T12:15:39;6.93;;;6.30;;
15096;SDS011;7649;52.084;7.478;2022-09-12T12:18:15;7.28;;;6.45;;
15096;SDS011;7649;52.084;7.478;2022-09-12T12:20:44;9.98;;;6.10;;
15096;SDS011;7649;52.084;7.478;2022-09-12T12:23:23;7.03;;;6.30;;
15096;SDS011;7649;52.084;7.478;2022-09-12T12:25:52;6.53;;;5.93;;
15096;SDS011;7649;52.084;7.478;2022-09-12T12:31:16;5.32;;;4.85;;
15096;SDS011;7649;52.084;7.478;2022-09-12T12:33:59;6.90;;;6.20;;
15096;SDS011;7649;52.084;7.478;2022-09-12T12:36:29;7.53;;;6.80;;
15096;SDS011;7649;52.084;7.478;2022-09-12T12:38:59;7.15;;;6.45;;
15096;SDS011;7649;52.084;7.478;2022-09-12T12:41:48;7.38;;;5.95;;
15096;SDS011;7649;52.084;7.478;2022-09-12T12:47:14;7.25;;;6.57;;
15096;SDS011;7649;52.084;7.478;2022-09-12T12:49:48;10.13;;;6.90;;
15096;SDS011;7649;52.084;7.478;2022-09-12T12:52:17;7.55;;;6.82;;
15096;SDS011;7649;52.084;7.478;2022-09-12T12:54:47;7.07;;;6.47;;
15096;SDS011;7649;52.084;7.478;2022-09-12T12:57:21;6.55;;;5.82;;
15096;SDS011;7649;52.084;7.478;2022-09-12T12:59:50;6.35;;;5.75;;
15096;SDS011;7649;52.084;7.478;2022-09-12T13:02:21;6.38;;;5.88;;
15096;SDS011;7649;52.084;7.478;2022-09-12T13:04:50;7.05;;;6.35;;
15096;SDS011;7649;52.084;7.478;2022-09-12T13:07:24;6.78;;;5.45;;
15096;SDS011;7649;52.084;7.478;2022-09-12T13:09:53;8.13;;;7.22;;
15096;SDS011;7649;52.084;7.478;2022-09-12T13:12:24;6.45;;;5.30;;
15096;SDS011;7649;52.084;7.478;2022-09-12T13:14:53;5.95;;;5.15;;
15096;SDS011;7649;52.084;7.478;2022-09-12T13:17:28;6.25;;;5.65;;
15096;SDS011;7649;52.084;7.478;2022-09-12T13:20:05;6.70;;;5.18;;
15096;SDS011;7649;52.084;7.478;2022-09-12T13:22:53;5.38;;;4.93;;
15096;SDS011;7649;52.084;7.478;2022-09-12T13:25:29;7.97;;;6.32;;
15096;SDS011;7649;52.084;7.478;2022-09-12T13:27:59;5.78;;;5.13;;
15096;SDS011;7649;52.084;7.478;2022-09-12T13:30:29;6.32;;;5.35;;
15096;SDS011;7649;52.084;7.478;2022-09-12T13:33:07;5.70;;;5.20;;
15096;SDS011;7649;52.084;7.478;2022-09-12T13:35:46;7.25;;;5.00;;
15096;SDS011;7649;52.084;7.478;2022-09-12T13:38:18;9.65;;;5.55;;
15096;SDS011;7649;52.084;7.478;2022-09-12T13:40:56;6.40;;;5.80;;
15096;SDS011;7649;52.084;7.478;2022-09-12T13:43:36;6.28;;;5.68;;
15096;SDS011;7649;52.084;7.478;2022-09-12T13:46:11;6.05;;;4.82;;
15096;SDS011;7649;52.084;7.478;2022-09-12T13:48:41;5.30;;;4.80;;
15096;SDS011;7649;52.084;7.478;2022-09-12T13:51:18;9.95;;;5.18;;
15096;SDS011;7649;52.084;7.478;2022-09-12T13:53:48;5.20;;;4.70;;
15096;SDS011;7649;52.084;7.478;2022-09-12T13:56:17;6.20;;;5.60;;
15096;SDS011;7649;52.084;7.478;2022-09-12T13:58:53;4.85;;;4.45;;
15096;SDS011;7649;52.084;7.478;2022-09-12T14:01:23;5.10;;;4.53;;
15096;SDS011;7649;52.084;7.478;2022-09-12T14:03:51;4.72;;;4.30;;
15096;SDS011;7649;52.084;7.478;2022-09-12T14:06:42;5.20;;;4.70;;
15096;SDS011;7649;52.084;7.478;2022-09-12T14:09:11;4.15;;;3.75;;
15096;SDS011;7649;52.084;7.478;2022-09-12T14:11:40;5.10;;;4.60;;
15096;SDS011;7649;52.084;7.478;2022-09-12T14:14:19;4.63;;;4.22;;
15096;SDS011;7649;52.084;7.478;2022-09-12T14:16:56;4.03;;;3.63;;
15096;SDS011;7649;52.084;7.478;2022-09-12T14:19:25;4.53;;;4.13;;
15096;SDS011;7649;52.084;7.478;2022-09-12T14:21:54;3.53;;;3.33;;
15096;SDS011;7649;52.084;7.478;2022-09-12T14:24:23;6.32;;;3.90;;
15096;SDS011;7649;52.084;7.478;2022-09-12T14:26:54;4.25;;;3.95;;
15096;SDS011;7649;52.084;7.478;2022-09-12T14:29:25;4.25;;;3.40;;
15096;SDS011;7649;52.084;7.478;2022-09-12T14:32:00;4.93;;;3.90;;
15096;SDS011;7649;52.084;7.478;2022-09-12T14:34:29;3.95;;;3.20;;
15096;SDS011;7649;52.084;7.478;2022-09-12T14:36:57;3.95;;;3.65;;
15096;SDS011;7649;52.084;7.478;2022-09-12T14:39:27;4.50;;;4.00;;
15096;SDS011;7649;52.084;7.478;2022-09-12T14:42:02;4.20;;;3.80;;
15096;SDS011;7649;52.084;7.478;2022-09-12T14:44:41;4.15;;;3.50;;
15096;SDS011;7649;52.084;7.478;2022-09-12T14:47:12;3.58;;;3.20;;
15096;SDS011;7649;52.084;7.478;2022-09-12T14:49:41;3.75;;;3.30;;
15096;SDS011;7649;52.084;7.478;2022-09-12T14:52:20;3.42;;;3.13;;
15096;SDS011;7649;52.084;7.478;2022-09-12T14:54:58;3.28;;;2.75;;
15096;SDS011;7649;52.084;7.478;2022-09-12T14:57:34;3.17;;;2.97;;
15096;SDS011;7649;52.084;7.478;2022-09-12T15:00:07;2.88;;;2.65;;
15096;SDS011;7649;52.084;7.478;2022-09-12T15:02:36;2.78;;;2.58;;
15096;SDS011;7649;52.084;7.478;2022-09-12T15:05:15;2.65;;;2.45;;
15096;SDS011;7649;52.084;7.478;2022-09-12T15:07:44;2.70;;;2.50;;
15096;SDS011;7649;52.084;7.478;2022-09-12T15:10:19;4.38;;;2.70;;
15096;SDS011;7649;52.084;7.478;2022-09-12T15:13:02;2.65;;;2.45;;
15096;SDS011;7649;52.084;7.478;2022-09-12T15:15:32;2.30;;;2.20;;
15096;SDS011;7649;52.084;7.478;2022-09-12T15:18:00;3.17;;;2.75;;